createdAt,value
2022-08-25T00:00:42.294Z,100864.25
2022-08-25T00:05:46.592Z,100873.69
2022-08-25T00:10:59.873Z,100862.00
2022-08-25T00:16:08.629Z,100862.81
2022-08-25T00:21:11.111Z,100855.34
2022-08-25T00:26:15.635Z,100860.34
2022-08-25T00:31:23.413Z,100858.94
2022-08-25T00:36:40.668Z,100867.13
2022-08-25T00:41:44.425Z,100860.03
2022-08-25T00:46:50.471Z,100872.56
2022-08-25T00:51:56.654Z,100870.09
2022-08-25T00:57:00.235Z,100869.56
2022-08-25T01:02:07.575Z,100865.25
2022-08-25T01:07:15.498Z,100856.13
2022-08-25T01:12:21.471Z,100857.88
2022-08-25T01:17:28.104Z,100851.16
2022-08-25T01:22:32.191Z,100852.53
2022-08-25T01:27:34.948Z,100846.53
2022-08-25T01:32:37.442Z,100856.47
2022-08-25T01:37:41.773Z,100845.34
2022-08-25T01:42:55.773Z,100855.47
2022-08-25T01:47:58.545Z,100842.03
2022-08-25T01:53:07.072Z,100847.97
2022-08-25T01:58:09.674Z,100844.09
2022-08-25T02:03:18.556Z,100843.44
2022-08-25T02:08:24.093Z,100836.25
2022-08-25T02:13:31.116Z,100846.69
2022-08-25T02:18:34.201Z,100845.16
2022-08-25T02:23:38.238Z,100837.63
2022-08-25T02:28:40.742Z,100831.25
2022-08-25T02:33:43.234Z,100831.22
2022-08-25T02:38:47.120Z,100826.19
2022-08-25T02:43:50.729Z,100821.03
2022-08-25T02:48:54.330Z,100817.97
2022-08-25T02:53:59.129Z,100809.16
2022-08-25T02:59:02.906Z,100812.88
2022-08-25T03:04:07.264Z,100815.84
2022-08-25T03:09:11.169Z,100815.94
2022-08-25T03:14:13.869Z,100818.44
2022-08-25T03:19:16.720Z,100817.69
2022-08-25T03:24:20.557Z,100821.31
2022-08-25T03:29:25.454Z,100818.75
2022-08-25T03:34:30.433Z,100825.84
2022-08-25T03:39:34.426Z,100816.09
2022-08-25T03:44:36.972Z,100817.50
2022-08-25T03:49:39.443Z,100819.75
2022-08-25T03:54:43.291Z,100803.22
2022-08-25T03:59:45.798Z,100812.84
2022-08-25T04:04:48.669Z,100814.75
2022-08-25T04:09:54.736Z,100818.31
2022-08-25T04:14:57.450Z,100819.06
2022-08-25T04:20:00.602Z,100817.41
2022-08-25T04:25:05.865Z,100812.38
2022-08-25T04:30:09.924Z,100815.75
2022-08-25T04:35:12.403Z,100817.31
2022-08-25T04:40:16.294Z,100811.59
2022-08-25T04:45:18.989Z,100817.66
2022-08-25T04:50:21.521Z,100812.97
2022-08-25T04:55:25.427Z,100805.38
2022-08-25T05:00:27.878Z,100814.78
2022-08-25T05:05:31.082Z,100810.28
2022-08-25T05:10:40.540Z,100809.78
2022-08-25T05:15:54.017Z,100802.03
2022-08-25T05:20:57.788Z,100797.97
2022-08-25T05:26:06.962Z,100798.75
2022-08-25T05:31:12.467Z,100797.75
2022-08-25T05:36:17.111Z,100802.72
2022-08-25T05:41:23.278Z,100809.78
2022-08-25T05:46:26.184Z,100810.00
2022-08-25T05:51:28.877Z,100816.28
2022-08-25T05:56:32.676Z,100819.03
2022-08-25T06:01:53.024Z,100810.19
2022-08-25T06:06:55.713Z,100807.09
2022-08-25T06:11:59.571Z,100810.28
2022-08-25T06:17:03.142Z,100812.47
2022-08-25T06:22:05.883Z,100805.63
2022-08-25T06:27:09.667Z,100797.09
2022-08-25T06:32:12.140Z,100794.34
2022-08-25T06:37:14.632Z,100791.44
2022-08-25T06:42:18.463Z,100789.84
2022-08-25T06:47:21.114Z,100792.25
2022-08-25T06:52:29.429Z,100789.97
2022-08-25T06:57:35.729Z,100792.72
2022-08-25T07:02:38.562Z,100791.78
2022-08-25T07:07:43.097Z,100808.34
2022-08-25T07:12:47.953Z,100802.81
2022-08-25T07:17:50.865Z,100799.34
2022-08-25T07:22:53.414Z,100788.75
2022-08-25T07:27:59.050Z,100795.81
2022-08-25T07:33:05.879Z,100791.13
2022-08-25T07:38:10.265Z,100796.34
2022-08-25T07:43:17.201Z,100793.00
2022-08-25T07:48:21.583Z,100779.19
2022-08-25T07:53:24.926Z,100780.00
2022-08-25T07:58:30.975Z,100784.69
2022-08-25T08:03:50.492Z,100778.56
2022-08-25T08:08:57.804Z,100774.44
2022-08-25T08:14:03.191Z,100773.41
2022-08-25T08:19:06.108Z,100773.06
2022-08-25T08:24:24.873Z,100766.31
2022-08-25T08:29:33.517Z,100759.38
2022-08-25T08:34:38.078Z,100762.69
2022-08-25T08:39:41.247Z,100750.00
2022-08-25T08:44:57.032Z,100742.44
2022-08-25T08:50:05.901Z,100733.63
2022-08-25T08:55:13.819Z,100735.66
2022-08-25T09:00:18.910Z,100730.00
2022-08-25T09:05:25.450Z,100722.22
2022-08-25T09:10:39.172Z,100735.25
2022-08-25T09:16:03.924Z,100737.47
2022-08-25T09:21:15.851Z,100741.97
2022-08-25T09:26:29.286Z,100726.78
2022-08-25T09:31:38.694Z,100721.84
2022-08-25T09:36:41.351Z,100724.41
2022-08-25T09:41:51.151Z,100712.09
2022-08-25T09:47:04.849Z,100709.97
2022-08-25T09:52:22.223Z,100698.72
2022-08-25T09:57:30.695Z,100698.28
2022-08-25T10:02:34.520Z,100688.81
2022-08-25T10:07:51.869Z,100678.94
2022-08-25T10:12:55.080Z,100676.78
2022-08-25T10:18:22.112Z,100664.47
2022-08-25T10:23:28.995Z,100666.56
2022-08-25T10:28:39.545Z,100655.34
2022-08-25T10:33:55.599Z,100653.44
2022-08-25T10:39:01.511Z,100652.56
2022-08-25T10:44:29.427Z,100640.66
2022-08-25T10:49:40.790Z,100641.75
2022-08-25T10:54:58.510Z,100631.28
2022-08-25T11:00:07.357Z,100626.34
2022-08-25T11:05:24.563Z,100618.03
2022-08-25T11:10:35.867Z,100608.06
2022-08-25T11:16:00.179Z,100596.75
2022-08-25T11:21:15.612Z,100597.28
2022-08-25T11:26:28.939Z,100579.78
2022-08-25T11:31:39.288Z,100577.06
2022-08-25T11:36:52.055Z,100577.81
2022-08-25T11:42:05.926Z,100572.13
2022-08-25T11:47:32.001Z,100561.72
2022-08-25T11:52:49.304Z,100555.66
2022-08-25T11:58:15.031Z,100555.16
2022-08-25T12:03:47.225Z,100556.59
2022-08-25T12:09:20.437Z,100542.72
2022-08-25T12:14:45.692Z,100547.44
2022-08-25T12:19:54.891Z,100545.84
2022-08-25T12:25:06.941Z,100545.44
2022-08-25T12:30:20.615Z,100539.25
2022-08-25T12:35:30.394Z,100523.16
2022-08-25T12:40:54.173Z,100521.00
2022-08-25T12:46:31.840Z,100521.28
2022-08-25T12:51:57.489Z,100517.25
2022-08-25T12:57:08.275Z,100505.69
2022-08-25T13:02:39.853Z,100517.06
2022-08-25T13:08:16.851Z,100504.88
2022-08-25T13:13:34.619Z,100493.81
2022-08-25T13:18:38.994Z,100492.41
2022-08-25T13:23:44.597Z,100482.72
2022-08-25T13:28:54.815Z,100485.44
2022-08-25T13:34:00.022Z,100475.16
2022-08-25T13:39:13.782Z,100474.84
2022-08-25T13:44:22.413Z,100458.28
2022-08-25T13:49:27.371Z,100450.72
2022-08-25T13:54:40.548Z,100440.41
2022-08-25T13:59:52.103Z,100447.88
2022-08-25T14:04:56.412Z,100446.13
2022-08-25T14:10:03.007Z,100429.59
2022-08-25T14:15:27.882Z,100418.13
2022-08-25T14:20:33.624Z,100429.28
2022-08-25T14:25:40.660Z,100428.59
2022-08-25T14:30:51.749Z,100414.59
2022-08-25T14:35:59.545Z,100407.69
2022-08-25T14:41:02.203Z,100391.31
2022-08-25T14:46:15.429Z,100399.72
2022-08-25T14:51:18.415Z,100390.50
2022-08-25T14:56:20.941Z,100388.50
2022-08-25T15:01:28.665Z,100375.41
2022-08-25T15:06:31.843Z,100370.19
2022-08-25T15:11:36.145Z,100371.34
2022-08-25T15:16:45.790Z,100374.69
2022-08-25T15:21:49.630Z,100358.03
2022-08-25T15:32:07.009Z,100347.88
2022-08-25T15:37:12.393Z,100349.66
2022-08-25T15:42:16.704Z,100348.28
2022-08-25T15:47:21.077Z,100337.84
2022-08-25T15:52:28.173Z,100349.09
2022-08-25T15:57:32.820Z,100336.56
2022-08-25T16:02:36.903Z,100341.75
2022-08-25T16:07:39.878Z,100341.59
2022-08-25T16:12:42.602Z,100342.84
2022-08-25T16:17:51.062Z,100346.19
2022-08-25T16:22:53.933Z,100337.28
2022-08-25T16:27:56.931Z,100329.28
2022-08-25T16:33:01.257Z,100326.16
2022-08-25T16:38:05.874Z,100323.69
2022-08-25T16:43:08.882Z,100327.09
2022-08-25T16:48:14.033Z,100320.72
2022-08-25T16:53:33.975Z,100329.03
2022-08-25T16:58:38.208Z,100326.19
2022-08-25T17:03:44.290Z,100324.91
2022-08-25T17:08:49.407Z,100330.88
2022-08-25T17:13:53.915Z,100326.66
2022-08-25T17:19:01.302Z,100329.88
2022-08-25T17:24:05.043Z,100320.31
2022-08-25T17:29:08.375Z,100333.94
2022-08-25T17:34:16.351Z,100329.97
2022-08-25T17:39:22.161Z,100325.75
2022-08-25T17:44:26.708Z,100325.69
2022-08-25T17:49:32.079Z,100327.88
2022-08-25T17:54:34.582Z,100324.66
2022-08-25T17:59:38.709Z,100339.47
2022-08-25T18:04:44.282Z,100339.09
2022-08-25T18:09:46.985Z,100343.44
2022-08-25T18:14:51.665Z,100341.41
2022-08-25T18:19:56.795Z,100345.38
2022-08-25T18:25:01.703Z,100353.00
2022-08-25T18:30:09.748Z,100350.38
2022-08-25T18:35:16.736Z,100356.94
2022-08-25T18:40:25.869Z,100356.69
2022-08-25T18:45:33.706Z,100367.28
2022-08-25T18:50:47.324Z,100373.47
2022-08-25T18:55:55.493Z,100368.66
2022-08-25T19:01:03.492Z,100368.72
2022-08-25T19:06:09.440Z,100374.78
2022-08-25T19:11:13.862Z,100379.50
2022-08-25T19:16:21.338Z,100381.13
2022-08-25T19:21:27.853Z,100380.44
2022-08-25T19:26:30.615Z,100381.06
2022-08-25T19:31:33.841Z,100372.81
2022-08-25T19:36:37.866Z,100370.78
2022-08-25T19:41:41.993Z,100362.63
2022-08-25T19:46:50.775Z,100354.31
2022-08-25T19:52:05.947Z,100363.44
2022-08-25T19:57:27.713Z,100372.56
2022-08-25T20:02:31.649Z,100364.84
2022-08-25T20:07:36.538Z,100378.84
2022-08-25T20:12:40.853Z,100371.44
2022-08-25T20:17:45.082Z,100377.28
2022-08-25T20:22:49.755Z,100385.97
2022-08-25T20:27:57.000Z,100390.50
2022-08-25T20:32:59.878Z,100394.16
2022-08-25T20:38:05.242Z,100400.41
2022-08-25T20:43:10.499Z,100409.63
2022-08-25T20:48:14.760Z,100408.25
2022-08-25T20:53:18.779Z,100404.78
2022-08-25T20:58:21.602Z,100408.13
2022-08-25T21:03:28.961Z,100404.13
2022-08-25T21:08:34.049Z,100408.50
2022-08-25T21:13:37.802Z,100393.69
2022-08-25T21:18:44.213Z,100394.38
2022-08-25T21:23:54.708Z,100404.94
2022-08-25T21:28:59.572Z,100400.50
2022-08-25T21:34:03.592Z,100396.66
2022-08-25T21:39:08.485Z,100384.25
2022-08-25T21:44:11.633Z,100397.38
2022-08-25T21:49:14.152Z,100391.34
2022-08-25T21:54:23.434Z,100395.34
2022-08-25T21:59:29.903Z,100395.34
2022-08-25T22:04:33.522Z,100392.13
2022-08-25T22:09:37.485Z,100401.50
2022-08-25T22:14:40.401Z,100383.25
2022-08-25T22:19:43.185Z,100386.53
2022-08-25T22:24:52.804Z,100384.75
2022-08-25T22:29:55.572Z,100374.53
2022-08-25T22:34:58.959Z,100382.38
2022-08-25T22:40:07.041Z,100386.31
2022-08-25T22:45:13.974Z,100384.22
2022-08-25T22:50:17.413Z,100369.44
2022-08-25T22:55:22.269Z,100373.84
2022-08-25T23:00:25.341Z,100376.81
2022-08-25T23:05:36.682Z,100367.47
2022-08-25T23:10:57.666Z,100364.84
2022-08-25T23:16:13.539Z,100364.16
2022-08-25T23:21:38.227Z,100353.75
2022-08-25T23:26:58.939Z,100334.34
2022-08-25T23:32:03.799Z,100327.81
2022-08-25T23:37:14.917Z,100319.72
2022-08-25T23:42:25.059Z,100325.25
2022-08-25T23:47:34.401Z,100317.03
2022-08-25T23:52:38.071Z,100320.47
2022-08-25T23:57:51.548Z,100292.38
